createdAt,value
2023-03-06T00:00:18.456Z,4.28
2023-03-06T00:02:45.605Z,6.25
2023-03-06T00:05:13.595Z,7.80
2023-03-06T00:07:41.009Z,5.65
2023-03-06T00:10:08.841Z,5.05
2023-03-06T00:12:35.724Z,4.22
2023-03-06T00:15:05.263Z,6.28
2023-03-06T00:17:32.500Z,4.13
2023-03-06T00:19:59.316Z,9.13
2023-03-06T00:22:26.242Z,12.10
2023-03-06T00:24:56.191Z,6.72
2023-03-06T00:27:26.213Z,6.95
2023-03-06T00:29:57.622Z,4.47
2023-03-06T00:32:25.432Z,8.23
2023-03-06T00:34:53.917Z,4.50
2023-03-06T00:37:22.228Z,5.68
2023-03-06T00:39:49.887Z,4.18
2023-03-06T00:42:18.414Z,6.25
2023-03-06T00:44:45.790Z,4.97
2023-03-06T00:47:12.939Z,12.48
2023-03-06T00:49:39.831Z,4.70
2023-03-06T00:52:06.828Z,7.80
2023-03-06T00:54:33.705Z,6.00
2023-03-06T00:57:00.664Z,9.88
2023-03-06T00:59:30.232Z,8.38
2023-03-06T01:01:57.187Z,8.60
2023-03-06T01:04:25.604Z,7.32
2023-03-06T01:06:52.559Z,13.68
2023-03-06T01:09:19.451Z,11.82
2023-03-06T01:11:46.409Z,8.20
2023-03-06T01:14:13.422Z,9.95
2023-03-06T01:16:40.376Z,11.43
2023-03-06T01:19:07.365Z,12.43
2023-03-06T01:21:34.313Z,9.90
2023-03-06T01:24:01.196Z,11.98
2023-03-06T01:26:28.226Z,12.55
2023-03-06T01:28:57.400Z,11.70
2023-03-06T01:31:25.153Z,10.68
2023-03-06T01:33:52.555Z,8.75
2023-03-06T01:36:19.571Z,10.02
2023-03-06T01:38:46.452Z,10.35
2023-03-06T01:41:15.881Z,11.65
2023-03-06T01:43:45.514Z,10.68
2023-03-06T01:46:42.109Z,20.70
2023-03-06T01:49:23.988Z,10.23
2023-03-06T01:52:11.841Z,10.95
2023-03-06T01:54:52.684Z,10.88
2023-03-06T01:57:22.674Z,9.68
2023-03-06T01:59:55.346Z,13.63
2023-03-06T02:02:25.113Z,10.23
2023-03-06T02:04:52.255Z,10.57
2023-03-06T02:07:20.856Z,12.50
2023-03-06T02:09:47.779Z,15.48
2023-03-06T02:12:19.032Z,15.82
2023-03-06T02:14:46.992Z,26.15
2023-03-06T02:17:16.692Z,12.57
2023-03-06T02:20:11.757Z,20.48
2023-03-06T02:22:48.101Z,22.85
2023-03-06T02:25:39.793Z,17.10
2023-03-06T02:28:10.331Z,16.48
2023-03-06T02:30:39.599Z,15.77
2023-03-06T02:33:06.875Z,20.52
2023-03-06T02:35:36.827Z,18.02
2023-03-06T02:38:08.983Z,21.52
2023-03-06T02:40:36.678Z,23.77
2023-03-06T02:43:04.112Z,22.50
2023-03-06T02:45:45.357Z,20.42
2023-03-06T02:48:14.556Z,20.10
2023-03-06T02:50:42.770Z,21.17
2023-03-06T02:53:11.240Z,21.50
2023-03-06T02:55:38.197Z,20.85
2023-03-06T02:58:06.132Z,20.85
2023-03-06T03:00:33.987Z,22.92
2023-03-06T03:03:03.825Z,23.67
2023-03-06T03:05:32.325Z,22.05
2023-03-06T03:08:06.047Z,20.23
2023-03-06T03:10:33.678Z,20.73
2023-03-06T03:13:00.706Z,21.02
2023-03-06T03:15:28.277Z,20.13
2023-03-06T03:17:55.108Z,17.60
2023-03-06T03:20:22.668Z,21.63
2023-03-06T03:22:52.579Z,20.50
2023-03-06T03:25:20.036Z,20.40
2023-03-06T03:27:47.664Z,20.33
2023-03-06T03:30:15.510Z,20.15
2023-03-06T03:32:42.947Z,17.98
2023-03-06T03:35:11.230Z,19.02
2023-03-06T03:37:38.590Z,20.50
2023-03-06T03:40:07.231Z,18.55
2023-03-06T03:42:34.349Z,18.67
2023-03-06T03:45:01.597Z,19.60
2023-03-06T03:47:28.602Z,26.13
2023-03-06T03:49:55.543Z,25.88
2023-03-06T03:52:22.910Z,22.58
2023-03-06T03:54:49.870Z,24.40
2023-03-06T03:57:16.818Z,19.38
2023-03-06T03:59:49.317Z,18.95
2023-03-06T04:02:23.827Z,20.30
2023-03-06T04:05:02.810Z,24.95
2023-03-06T04:07:29.822Z,25.65
2023-03-06T04:09:57.106Z,18.40
2023-03-06T04:12:24.479Z,17.05
2023-03-06T04:14:51.497Z,23.52
2023-03-06T04:17:18.611Z,18.23
2023-03-06T04:19:45.626Z,18.88
2023-03-06T04:22:12.499Z,15.38
2023-03-06T04:24:40.110Z,18.27
2023-03-06T04:27:07.037Z,15.77
2023-03-06T04:29:34.031Z,17.10
2023-03-06T04:32:01.066Z,17.05
2023-03-06T04:34:28.458Z,12.95
2023-03-06T04:36:55.401Z,16.05
2023-03-06T04:39:23.097Z,15.15
2023-03-06T04:41:50.289Z,18.95
2023-03-06T04:44:17.305Z,12.40
2023-03-06T04:46:44.149Z,13.10
2023-03-06T04:49:11.113Z,12.32
2023-03-06T04:51:37.963Z,12.98
2023-03-06T04:54:05.411Z,14.55
2023-03-06T04:56:32.393Z,18.20
2023-03-06T04:58:59.254Z,17.83
2023-03-06T05:01:26.184Z,16.88
2023-03-06T05:03:53.145Z,15.82
2023-03-06T05:06:20.035Z,17.52
2023-03-06T05:08:47.831Z,19.17
2023-03-06T05:11:14.715Z,18.10
2023-03-06T05:13:41.573Z,17.15
2023-03-06T05:16:08.819Z,14.88
2023-03-06T05:18:36.581Z,14.60
2023-03-06T05:21:04.911Z,14.65
2023-03-06T05:23:36.225Z,16.58
2023-03-06T05:26:08.225Z,16.23
2023-03-06T05:28:35.686Z,10.55
2023-03-06T05:31:03.545Z,13.18
2023-03-06T05:33:32.647Z,10.95
2023-03-06T05:35:59.865Z,12.93
2023-03-06T05:38:26.808Z,10.25
2023-03-06T05:40:53.832Z,15.88
2023-03-06T05:43:20.873Z,8.32
2023-03-06T05:45:50.334Z,10.30
2023-03-06T05:48:17.277Z,6.25
2023-03-06T05:50:44.262Z,8.25
2023-03-06T05:53:11.184Z,11.02
2023-03-06T05:55:38.098Z,9.02
2023-03-06T05:58:04.957Z,8.00
2023-03-06T06:00:31.775Z,9.77
2023-03-06T06:03:02.171Z,10.75
2023-03-06T06:05:29.045Z,8.30
2023-03-06T06:07:56.069Z,11.43
2023-03-06T06:10:22.941Z,14.65
2023-03-06T06:12:49.790Z,10.05
2023-03-06T06:15:16.682Z,13.60
2023-03-06T06:17:43.569Z,11.90
2023-03-06T06:20:11.215Z,13.65
2023-03-06T06:22:38.369Z,11.90
2023-03-06T06:25:06.586Z,14.40
2023-03-06T06:27:33.438Z,11.30
2023-03-06T06:30:00.301Z,11.82
2023-03-06T06:32:27.213Z,14.55
2023-03-06T06:34:54.334Z,10.57
2023-03-06T06:37:21.196Z,8.00
2023-03-06T06:39:48.147Z,8.20
2023-03-06T06:42:30.969Z,11.20
2023-03-06T06:45:01.161Z,10.82
2023-03-06T06:47:28.187Z,5.50
2023-03-06T06:49:56.183Z,4.72
2023-03-06T06:52:24.544Z,3.70
2023-03-06T06:54:52.257Z,5.22
2023-03-06T06:57:19.211Z,4.38
2023-03-06T06:59:46.082Z,2.83
2023-03-06T07:02:14.272Z,3.83
2023-03-06T07:04:56.200Z,2.03
2023-03-06T07:07:28.887Z,3.88
2023-03-06T07:09:57.085Z,3.13
2023-03-06T07:12:25.121Z,2.20
2023-03-06T07:14:52.403Z,1.33
2023-03-06T07:17:20.199Z,3.78
2023-03-06T07:19:48.234Z,3.03
2023-03-06T07:22:15.287Z,3.45
2023-03-06T07:24:42.581Z,1.83
2023-03-06T07:27:09.786Z,1.92
2023-03-06T07:29:36.937Z,1.30
2023-03-06T07:32:04.516Z,2.25
2023-03-06T07:34:31.849Z,1.25
2023-03-06T07:36:58.912Z,1.58
2023-03-06T07:39:28.061Z,4.88
2023-03-06T07:41:55.165Z,3.17
2023-03-06T07:44:23.531Z,1.48
2023-03-06T07:46:52.576Z,2.13
2023-03-06T07:49:20.215Z,1.30
2023-03-06T07:51:47.109Z,1.17
2023-03-06T07:54:13.964Z,1.20
2023-03-06T07:56:40.856Z,2.53
2023-03-06T07:59:07.752Z,1.27
2023-03-06T08:01:36.451Z,1.10
2023-03-06T08:04:03.679Z,3.45
2023-03-06T08:06:30.576Z,11.45
2023-03-06T08:08:57.719Z,2.42
2023-03-06T08:11:27.002Z,0.80
2023-03-06T08:13:54.874Z,0.95
2023-03-06T08:16:23.806Z,1.25
2023-03-06T08:18:51.161Z,0.73
2023-03-06T08:21:20.656Z,0.82
2023-03-06T08:23:48.309Z,1.60
2023-03-06T08:26:22.013Z,1.10
2023-03-06T08:28:51.469Z,1.05
2023-03-06T08:31:21.433Z,0.60
2023-03-06T08:33:48.334Z,1.27
2023-03-06T08:36:15.344Z,4.65
2023-03-06T08:38:42.178Z,1.58
2023-03-06T08:41:09.073Z,1.45
2023-03-06T08:43:36.193Z,1.55
2023-03-06T08:46:03.557Z,0.60
2023-03-06T08:48:30.785Z,0.95
2023-03-06T08:50:57.917Z,0.88
2023-03-06T08:53:40.459Z,1.83
2023-03-06T08:56:14.792Z,0.40
2023-03-06T08:58:41.655Z,0.80
2023-03-06T09:01:16.300Z,0.75
2023-03-06T09:03:43.406Z,0.68
2023-03-06T09:06:10.276Z,0.50
2023-03-06T09:08:37.213Z,1.50
2023-03-06T09:11:04.696Z,0.63
2023-03-06T09:13:31.545Z,1.40
2023-03-06T09:15:58.359Z,0.40
2023-03-06T09:18:25.429Z,1.30
2023-03-06T09:20:52.238Z,2.10
2023-03-06T09:23:19.067Z,3.90
2023-03-06T09:25:46.293Z,3.03
2023-03-06T09:28:13.163Z,1.05
2023-03-06T09:30:41.165Z,0.82
2023-03-06T09:33:08.270Z,0.47
2023-03-06T09:35:35.688Z,2.38
2023-03-06T09:38:02.571Z,1.45
2023-03-06T09:40:58.800Z,0.30
2023-03-06T09:43:41.580Z,2.58
2023-03-06T09:46:42.732Z,2.42
2023-03-06T09:49:15.652Z,1.05
2023-03-06T09:51:55.425Z,1.15
2023-03-06T09:54:34.352Z,1.48
2023-03-06T09:57:01.201Z,0.65
2023-03-06T09:59:28.652Z,1.00
2023-03-06T10:02:21.984Z,4.13
2023-03-06T10:04:53.766Z,2.55
2023-03-06T10:07:42.348Z,0.45
2023-03-06T10:10:18.474Z,2.25
2023-03-06T10:13:05.902Z,2.97
2023-03-06T10:15:36.188Z,5.05
2023-03-06T10:18:05.222Z,1.55
2023-03-06T10:20:45.631Z,0.70
2023-03-06T10:23:15.298Z,1.55
2023-03-06T10:26:01.752Z,1.77
2023-03-06T10:28:35.478Z,1.85
2023-03-06T10:31:08.607Z,0.98
2023-03-06T10:34:13.767Z,0.38
2023-03-06T10:36:40.632Z,1.13
2023-03-06T10:39:16.247Z,1.83
2023-03-06T10:41:45.323Z,1.63
2023-03-06T10:44:12.268Z,2.33
2023-03-06T10:46:45.308Z,0.50
2023-03-06T10:49:21.049Z,1.25
2023-03-06T10:52:13.900Z,3.22
2023-03-06T10:54:43.840Z,2.17
2023-03-06T10:57:31.741Z,1.65
2023-03-06T11:00:01.367Z,0.85
2023-03-06T11:02:31.340Z,3.47
2023-03-06T11:05:01.133Z,0.50
2023-03-06T11:07:36.018Z,1.30
2023-03-06T11:10:19.612Z,0.77
2023-03-06T11:13:02.785Z,0.50
2023-03-06T11:15:30.202Z,3.22
2023-03-06T11:18:21.650Z,0.93
2023-03-06T11:20:53.128Z,0.63
2023-03-06T11:23:35.144Z,5.57
2023-03-06T11:26:15.837Z,0.38
2023-03-06T11:28:46.459Z,2.40
2023-03-06T11:31:22.659Z,1.30
2023-03-06T11:33:56.488Z,0.45
2023-03-06T11:36:49.526Z,0.70
2023-03-06T11:39:37.967Z,1.23
2023-03-06T11:42:26.588Z,0.52
2023-03-06T11:44:57.873Z,0.88
2023-03-06T11:48:09.425Z,1.10
2023-03-06T11:50:41.351Z,2.58
2023-03-06T11:53:15.312Z,0.70
2023-03-06T11:55:57.223Z,2.55
2023-03-06T11:58:33.448Z,1.60
2023-03-06T12:01:10.224Z,1.15
2023-03-06T12:03:48.463Z,0.70
2023-03-06T12:06:43.999Z,0.75
2023-03-06T12:09:14.136Z,0.90
2023-03-06T12:11:49.987Z,3.85
2023-03-06T12:14:19.975Z,0.70
2023-03-06T12:17:04.032Z,2.17
2023-03-06T12:20:10.347Z,0.85
2023-03-06T12:23:18.281Z,1.30
2023-03-06T12:25:54.355Z,3.75
2023-03-06T12:28:58.212Z,1.80
2023-03-06T12:31:41.249Z,2.15
2023-03-06T12:34:20.849Z,3.08
2023-03-06T12:37:06.314Z,2.42
2023-03-06T12:39:48.257Z,1.77
2023-03-06T12:42:24.218Z,4.68
2023-03-06T12:44:56.962Z,2.58
2023-03-06T12:47:28.206Z,5.50
2023-03-06T12:50:07.564Z,2.67
2023-03-06T12:52:35.356Z,3.28
2023-03-06T12:55:07.504Z,1.75
2023-03-06T12:57:34.432Z,4.63
2023-03-06T13:00:01.324Z,2.10
2023-03-06T13:02:34.078Z,2.25
2023-03-06T13:05:29.040Z,1.25
2023-03-06T13:07:58.961Z,1.52
2023-03-06T13:10:36.283Z,5.10
2023-03-06T13:13:05.190Z,5.93
2023-03-06T13:15:37.178Z,2.63
2023-03-06T13:18:22.569Z,2.00
2023-03-06T13:20:56.153Z,2.00
2023-03-06T13:23:35.738Z,2.20
2023-03-06T13:26:11.424Z,2.58
2023-03-06T13:28:49.848Z,4.65
2023-03-06T13:31:51.873Z,6.82
2023-03-06T13:34:37.700Z,2.92
2023-03-06T13:37:13.853Z,2.90
2023-03-06T13:39:56.048Z,6.22
2023-03-06T13:42:36.175Z,4.47
2023-03-06T13:45:25.771Z,5.95
2023-03-06T13:48:21.438Z,5.53
2023-03-06T13:50:46.228Z,5.82
2023-03-06T13:53:50.674Z,5.47
2023-03-06T13:56:39.562Z,8.93
2023-03-06T13:59:28.185Z,6.45
2023-03-06T14:02:24.253Z,6.13
2023-03-06T14:05:01.064Z,9.05
2023-03-06T14:07:40.493Z,13.93
2023-03-06T14:10:13.625Z,10.65
2023-03-06T14:12:49.582Z,9.75
2023-03-06T14:15:22.273Z,8.75
2023-03-06T14:17:59.379Z,12.52
2023-03-06T14:20:40.342Z,12.13
2023-03-06T14:23:22.481Z,7.72
2023-03-06T14:26:15.237Z,7.82
2023-03-06T14:28:44.595Z,6.80
2023-03-06T14:31:30.070Z,10.82
2023-03-06T14:34:03.354Z,11.90
2023-03-06T14:36:36.124Z,6.80
2023-03-06T14:39:08.852Z,7.35
2023-03-06T14:41:36.670Z,12.07
2023-03-06T14:44:19.436Z,8.65
2023-03-06T14:46:57.918Z,6.63
2023-03-06T14:49:26.371Z,7.55
2023-03-06T14:51:55.953Z,4.50
2023-03-06T14:54:28.711Z,4.88
2023-03-06T14:57:08.052Z,7.40
2023-03-06T14:59:53.891Z,6.55
2023-03-06T15:02:23.455Z,7.78
2023-03-06T15:05:20.065Z,7.63
2023-03-06T15:07:47.115Z,5.35
2023-03-06T15:10:26.370Z,4.28
2023-03-06T15:12:53.603Z,11.23
2023-03-06T15:15:30.075Z,3.47
2023-03-06T15:17:57.373Z,4.55
2023-03-06T15:20:45.454Z,7.18
2023-03-06T15:23:19.207Z,5.28
2023-03-06T15:26:00.721Z,5.43
2023-03-06T15:28:33.672Z,3.73
2023-03-06T15:31:20.896Z,6.57
2023-03-06T15:34:12.715Z,8.05
2023-03-06T15:36:51.400Z,3.43
2023-03-06T15:39:39.448Z,3.40
2023-03-06T15:42:15.223Z,3.42
2023-03-06T15:44:42.103Z,4.90
2023-03-06T15:47:12.084Z,5.25
2023-03-06T15:49:39.786Z,3.20
2023-03-06T15:52:07.226Z,5.47
2023-03-06T15:54:34.566Z,3.80
2023-03-06T15:57:05.343Z,6.55
2023-03-06T15:59:42.897Z,10.80
2023-03-06T16:02:22.246Z,7.72
2023-03-06T16:04:49.347Z,8.25
2023-03-06T16:07:16.742Z,7.22
2023-03-06T16:09:44.412Z,9.07
2023-03-06T16:12:17.453Z,14.25
2023-03-06T16:14:47.256Z,11.15
2023-03-06T16:17:14.963Z,10.05
2023-03-06T16:19:43.110Z,12.63
2023-03-06T16:22:09.954Z,10.35
2023-03-06T16:24:37.254Z,12.35
2023-03-06T16:27:04.727Z,17.52
2023-03-06T16:29:31.921Z,17.60
2023-03-06T16:32:01.649Z,17.45
2023-03-06T16:34:28.714Z,17.60
2023-03-06T16:36:55.640Z,16.88
2023-03-06T16:39:23.729Z,16.90
2023-03-06T16:41:50.657Z,19.63
2023-03-06T16:44:17.775Z,18.30
2023-03-06T16:46:47.009Z,19.92
2023-03-06T16:49:21.365Z,18.55
2023-03-06T16:51:49.199Z,23.23
2023-03-06T16:54:16.698Z,24.88
2023-03-06T16:56:44.351Z,21.20
2023-03-06T16:59:12.339Z,22.67
2023-03-06T17:01:43.098Z,22.27
2023-03-06T17:04:10.431Z,26.42
2023-03-06T17:06:38.026Z,22.52
2023-03-06T17:09:05.432Z,27.23
2023-03-06T17:11:32.393Z,25.13
2023-03-06T17:13:59.440Z,26.65
2023-03-06T17:16:26.586Z,23.48
2023-03-06T17:18:55.113Z,23.98
2023-03-06T17:21:22.089Z,24.48
2023-03-06T17:23:50.823Z,24.08
2023-03-06T17:26:19.181Z,27.85
2023-03-06T17:28:47.146Z,27.02
2023-03-06T17:31:17.291Z,30.60
2023-03-06T17:33:44.736Z,27.52
2023-03-06T17:36:12.652Z,31.83
2023-03-06T17:38:39.753Z,27.77
2023-03-06T17:41:08.070Z,26.42
2023-03-06T17:43:36.815Z,27.30
2023-03-06T17:46:05.027Z,24.02
2023-03-06T17:48:32.206Z,29.15
2023-03-06T17:50:59.127Z,27.98
2023-03-06T17:53:26.049Z,28.02
2023-03-06T17:55:53.204Z,25.17
2023-03-06T17:58:20.119Z,26.67
2023-03-06T18:00:47.041Z,25.65
2023-03-06T18:03:13.984Z,22.60
2023-03-06T18:05:41.073Z,26.63
2023-03-06T18:08:10.222Z,23.48
2023-03-06T18:10:43.578Z,31.40
2023-03-06T18:13:11.141Z,25.80
2023-03-06T18:15:41.873Z,26.42
2023-03-06T18:18:09.203Z,25.30
2023-03-06T18:20:41.605Z,28.48
2023-03-06T18:23:08.755Z,26.42
2023-03-06T18:25:35.879Z,28.38
2023-03-06T18:28:02.824Z,29.50
2023-03-06T18:30:29.698Z,27.13
2023-03-06T18:32:56.502Z,31.80
2023-03-06T18:35:23.436Z,27.80
2023-03-06T18:37:50.340Z,29.40
2023-03-06T18:40:17.476Z,29.50
2023-03-06T18:42:44.427Z,32.95
2023-03-06T18:45:12.854Z,28.63
2023-03-06T18:47:40.511Z,30.83
2023-03-06T18:50:08.912Z,23.73
2023-03-06T18:52:35.764Z,25.05
2023-03-06T18:55:02.692Z,27.88
2023-03-06T18:57:30.466Z,25.85
2023-03-06T18:59:57.534Z,25.92
2023-03-06T19:02:24.571Z,26.65
2023-03-06T19:04:52.884Z,28.02
2023-03-06T19:07:19.854Z,27.23
2023-03-06T19:09:49.020Z,29.13
2023-03-06T19:12:17.439Z,31.38
2023-03-06T19:14:44.793Z,26.75
2023-03-06T19:17:11.747Z,37.67
2023-03-06T19:19:38.656Z,24.10
2023-03-06T19:22:05.600Z,31.27
2023-03-06T19:24:35.469Z,30.63
2023-03-06T19:27:02.288Z,27.73
2023-03-06T19:29:29.207Z,27.95
2023-03-06T19:31:57.264Z,31.38
2023-03-06T19:34:24.423Z,29.35
2023-03-06T19:36:51.628Z,30.33
2023-03-06T19:39:18.573Z,31.30
2023-03-06T19:41:47.486Z,35.50
2023-03-06T19:44:16.169Z,35.13
2023-03-06T19:46:43.669Z,39.08
2023-03-06T19:49:18.046Z,36.25
2023-03-06T19:51:45.321Z,37.47
2023-03-06T19:54:12.710Z,33.55
2023-03-06T19:56:40.024Z,38.97
2023-03-06T19:59:06.947Z,33.03
2023-03-06T20:01:34.418Z,43.72
2023-03-06T20:04:01.811Z,42.50
2023-03-06T20:06:33.348Z,38.40
2023-03-06T20:09:02.333Z,46.83
2023-03-06T20:11:30.134Z,39.50
2023-03-06T20:13:58.747Z,38.08
2023-03-06T20:16:28.062Z,41.67
2023-03-06T20:18:58.133Z,40.45
2023-03-06T20:21:25.898Z,39.25
2023-03-06T20:23:54.480Z,38.53
2023-03-06T20:26:21.400Z,40.97
2023-03-06T20:28:48.312Z,30.70
2023-03-06T20:31:17.750Z,39.38
2023-03-06T20:33:49.591Z,40.75
2023-03-06T20:36:31.185Z,45.03
2023-03-06T20:39:05.444Z,47.95
2023-03-06T20:41:32.903Z,39.22
2023-03-06T20:44:01.282Z,40.25
2023-03-06T20:46:28.475Z,46.22
2023-03-06T20:48:56.032Z,40.00
2023-03-06T20:51:25.726Z,46.78
2023-03-06T20:53:53.281Z,51.00
2023-03-06T20:56:23.552Z,42.85
2023-03-06T20:58:50.974Z,39.53
2023-03-06T21:01:25.703Z,39.03
2023-03-06T21:03:53.299Z,43.65
2023-03-06T21:06:21.052Z,46.45
2023-03-06T21:08:48.779Z,36.53
2023-03-06T21:11:16.458Z,38.75
2023-03-06T21:13:43.482Z,44.35
2023-03-06T21:16:13.256Z,39.35
2023-03-06T21:18:40.286Z,35.17
2023-03-06T21:21:13.581Z,37.25
2023-03-06T21:23:40.756Z,36.75
2023-03-06T21:26:07.889Z,35.05
2023-03-06T21:28:34.724Z,40.58
2023-03-06T21:31:02.391Z,36.55
2023-03-06T21:33:29.303Z,38.45
2023-03-06T21:35:56.272Z,36.53
2023-03-06T21:38:23.306Z,38.72
2023-03-06T21:40:50.408Z,43.22
2023-03-06T21:43:17.610Z,35.80
2023-03-06T21:45:46.279Z,40.78
2023-03-06T21:48:14.894Z,39.83
2023-03-06T21:50:42.313Z,37.33
2023-03-06T21:53:09.634Z,33.88
2023-03-06T21:55:40.769Z,40.42
2023-03-06T21:58:07.614Z,37.58
2023-03-06T22:00:36.424Z,32.92
2023-03-06T22:03:04.757Z,36.83
2023-03-06T22:05:32.070Z,23.25
2023-03-06T22:07:59.481Z,27.20
2023-03-06T22:10:26.329Z,16.95
2023-03-06T22:12:53.228Z,22.50
2023-03-06T22:15:21.813Z,18.60
2023-03-06T22:17:48.832Z,18.77
2023-03-06T22:20:15.923Z,14.88
2023-03-06T22:22:43.678Z,9.98
2023-03-06T22:25:11.910Z,16.63
2023-03-06T22:27:38.933Z,13.35
2023-03-06T22:30:06.488Z,10.80
2023-03-06T22:32:33.658Z,11.32
2023-03-06T22:35:00.642Z,10.73
2023-03-06T22:37:27.518Z,10.90
2023-03-06T22:39:54.344Z,9.25
2023-03-06T22:42:21.256Z,9.52
2023-03-06T22:44:48.115Z,7.10
2023-03-06T22:47:14.972Z,8.23
2023-03-06T22:49:41.907Z,9.85
2023-03-06T22:52:08.751Z,8.00
2023-03-06T22:54:35.762Z,8.68
2023-03-06T22:57:03.028Z,8.13
2023-03-06T22:59:30.036Z,7.68
2023-03-06T23:01:56.886Z,9.80
2023-03-06T23:04:23.748Z,9.93
2023-03-06T23:06:50.675Z,10.05
2023-03-06T23:09:22.715Z,6.50
2023-03-06T23:12:09.127Z,12.25
2023-03-06T23:14:54.969Z,6.15
2023-03-06T23:17:40.196Z,6.22
2023-03-06T23:20:25.659Z,7.82
2023-03-06T23:23:11.371Z,5.65
2023-03-06T23:25:41.225Z,5.38
2023-03-06T23:28:08.230Z,8.77
2023-03-06T23:30:35.102Z,6.47
2023-03-06T23:33:01.976Z,5.68
2023-03-06T23:35:28.884Z,6.90
2023-03-06T23:37:55.750Z,8.73
2023-03-06T23:40:22.755Z,8.40
2023-03-06T23:42:49.630Z,10.27
2023-03-06T23:45:16.742Z,9.32
2023-03-06T23:47:43.588Z,13.23
2023-03-06T23:50:11.257Z,12.00
2023-03-06T23:52:38.813Z,12.82
2023-03-06T23:55:06.499Z,17.65
2023-03-06T23:57:33.607Z,13.98
